createdAt,value
2017-09-11T00:00:27.900Z,99116.31
2017-09-11T00:02:55.357Z,99110.72
2017-09-11T00:05:22.865Z,99099.93
2017-09-11T00:07:50.325Z,99099.98
2017-09-11T00:10:17.932Z,99086.91
2017-09-11T00:12:45.398Z,99089.42
2017-09-11T00:15:12.906Z,99082.78
2017-09-11T00:17:40.376Z,99078.89
2017-09-11T00:20:07.820Z,99074.38
2017-09-11T00:22:35.390Z,99073.33
2017-09-11T00:25:02.978Z,99083.13
2017-09-11T00:27:30.452Z,99069.51
2017-09-11T00:29:57.961Z,99073.77
2017-09-11T00:32:25.433Z,99074.36
2017-09-11T00:34:52.981Z,99074.57
2017-09-11T00:37:20.486Z,99071.28
2017-09-11T00:39:47.943Z,99062.98
2017-09-11T00:42:15.436Z,99060.75
2017-09-11T00:44:42.916Z,99053.73
2017-09-11T00:47:10.468Z,99053.44
2017-09-11T00:49:38.050Z,99048.86
2017-09-11T00:52:05.557Z,99048.55
2017-09-11T00:54:33.004Z,99043.91
2017-09-11T00:57:00.486Z,99048.13
2017-09-11T00:59:27.928Z,99046.31
2017-09-11T01:01:55.411Z,99046.08
2017-09-11T01:04:23.115Z,99038.42
2017-09-11T01:06:50.629Z,99034.69
2017-09-11T01:09:18.192Z,99036.16
2017-09-11T01:11:45.702Z,99036.95
2017-09-11T01:14:13.172Z,99029.41
2017-09-11T01:16:41.633Z,99034.42
2017-09-11T01:19:09.103Z,99023.61
2017-09-11T01:21:36.553Z,99015.09
2017-09-11T01:24:04.054Z,99006.95
2017-09-11T01:26:31.499Z,99005.73
2017-09-11T01:28:58.976Z,98999.22
2017-09-11T01:31:26.525Z,99001.09
2017-09-11T01:33:53.996Z,98998.40
2017-09-11T01:36:21.435Z,98987.86
2017-09-11T01:38:48.896Z,98987.33
2017-09-11T01:41:16.875Z,98977.36
2017-09-11T01:46:11.079Z,98980.47
2017-09-11T01:48:38.616Z,98972.66
2017-09-11T01:51:06.061Z,98966.77
2017-09-11T01:53:33.592Z,98961.48
2017-09-11T01:56:01.041Z,98962.28
2017-09-11T01:58:28.512Z,98963.23
2017-09-11T02:00:56.004Z,98963.41
2017-09-11T02:03:23.584Z,98952.62
2017-09-11T02:05:51.054Z,98961.48
2017-09-11T02:08:18.505Z,98945.09
2017-09-11T02:10:45.981Z,98948.14
2017-09-11T02:13:13.449Z,98946.92
2017-09-11T02:15:40.939Z,98945.40
2017-09-11T02:18:08.400Z,98940.45
2017-09-11T02:20:35.956Z,98947.55
2017-09-11T02:23:03.538Z,98941.44
2017-09-11T02:25:31.009Z,98940.02
2017-09-11T02:27:58.537Z,98935.78
2017-09-11T02:30:26.064Z,98940.54
2017-09-11T02:32:53.512Z,98938.22
2017-09-11T02:35:20.990Z,98928.58
2017-09-11T02:37:48.457Z,98929.35
2017-09-11T02:40:16.236Z,98922.61
2017-09-11T02:42:43.801Z,98926.29
2017-09-11T02:45:11.340Z,98929.13
2017-09-11T02:47:38.905Z,98920.11
2017-09-11T02:50:06.465Z,98922.96
2017-09-11T02:52:34.013Z,98918.20
2017-09-11T02:55:01.581Z,98919.14
2017-09-11T02:57:29.156Z,98908.41
2017-09-11T02:59:56.696Z,98901.83
2017-09-11T03:02:24.153Z,98905.05
2017-09-11T03:04:51.609Z,98898.45
2017-09-11T03:07:19.075Z,98900.86
2017-09-11T03:09:46.624Z,98904.27
2017-09-11T03:12:14.091Z,98895.70
2017-09-11T03:14:41.644Z,98895.97
2017-09-11T03:17:09.129Z,98900.00
2017-09-11T03:19:36.572Z,98891.53
2017-09-11T03:22:04.041Z,98896.91
2017-09-11T03:24:31.497Z,98896.91
2017-09-11T03:26:59.013Z,98894.56
2017-09-11T03:29:26.476Z,98888.95
2017-09-11T03:31:53.947Z,98882.77
2017-09-11T03:34:21.404Z,98877.66
2017-09-11T03:36:48.880Z,98871.66
2017-09-11T03:39:16.420Z,98875.77
2017-09-11T03:41:43.968Z,98873.16
2017-09-11T03:44:11.416Z,98873.73
2017-09-11T03:46:38.892Z,98867.91
2017-09-11T03:49:06.340Z,98865.53
2017-09-11T03:51:33.938Z,98866.44
2017-09-11T03:54:01.404Z,98856.66
2017-09-11T03:56:28.872Z,98858.78
2017-09-11T03:58:56.324Z,98853.48
2017-09-11T04:01:23.804Z,98858.00
2017-09-11T04:03:51.305Z,98853.38
2017-09-11T04:06:18.811Z,98860.94
2017-09-11T04:08:46.292Z,98852.03
2017-09-11T04:11:13.736Z,98850.41
2017-09-11T04:13:41.223Z,98846.08
2017-09-11T04:16:08.968Z,98837.84
2017-09-11T04:18:36.452Z,98835.73
2017-09-11T04:21:03.990Z,98837.19
2017-09-11T04:23:31.471Z,98833.69
2017-09-11T04:25:58.987Z,98831.69
2017-09-11T04:28:26.462Z,98830.84
2017-09-11T04:30:53.908Z,98822.17
2017-09-11T04:33:21.480Z,98827.84
2017-09-11T04:35:48.929Z,98826.91
2017-09-11T04:38:16.492Z,98830.02
2017-09-11T04:40:43.969Z,98828.84
2017-09-11T04:43:11.440Z,98821.91
2017-09-11T04:45:38.968Z,98826.66
2017-09-11T04:48:06.436Z,98820.81
2017-09-11T04:50:33.908Z,98818.56
2017-09-11T04:53:01.436Z,98820.23
2017-09-11T04:55:28.887Z,98817.03
2017-09-11T04:57:56.449Z,98831.53
2017-09-11T05:00:23.898Z,98825.30
2017-09-11T05:02:51.371Z,98822.28
2017-09-11T05:05:18.816Z,98822.88
2017-09-11T05:07:46.255Z,98816.62
2017-09-11T05:10:13.724Z,98819.89
2017-09-11T05:12:41.241Z,98816.98
2017-09-11T05:15:08.728Z,98816.35
2017-09-11T05:17:36.208Z,98815.28
2017-09-11T05:20:03.694Z,98820.84
2017-09-11T05:22:31.139Z,98822.23
2017-09-11T05:24:59.078Z,98818.59
2017-09-11T05:27:26.608Z,98814.20
2017-09-11T05:29:54.080Z,98809.11
2017-09-11T05:32:21.560Z,98805.05
2017-09-11T05:34:49.033Z,98812.55
2017-09-11T05:37:16.578Z,98806.52
2017-09-11T05:39:44.576Z,98802.74
2017-09-11T05:42:12.027Z,98799.03
2017-09-11T05:44:39.509Z,98804.67
2017-09-11T05:47:06.995Z,98802.45
2017-09-11T05:49:34.463Z,98806.70
2017-09-11T05:52:01.976Z,98811.83
2017-09-11T05:54:29.464Z,98818.52
2017-09-11T05:56:56.917Z,98819.84
2017-09-11T05:59:24.387Z,98819.06
2017-09-11T06:01:51.835Z,98802.86
2017-09-11T06:04:19.380Z,98803.50
2017-09-11T06:06:46.828Z,98806.28
2017-09-11T06:09:14.333Z,98813.59
2017-09-11T06:11:41.784Z,98805.09
2017-09-11T06:14:09.230Z,98806.04
2017-09-11T06:16:36.715Z,98804.08
2017-09-11T06:19:04.176Z,98800.25
2017-09-11T06:21:31.648Z,98797.47
2017-09-11T06:23:59.106Z,98789.73
2017-09-11T06:26:26.609Z,98796.80
2017-09-11T06:28:54.057Z,98799.06
2017-09-11T06:31:21.548Z,98811.34
2017-09-11T06:33:49.005Z,98810.38
2017-09-11T06:36:16.477Z,98809.57
2017-09-11T06:38:43.936Z,98810.88
2017-09-11T06:41:11.408Z,98803.59
2017-09-11T06:43:38.867Z,98805.36
2017-09-11T06:46:06.397Z,98807.08
2017-09-11T06:48:33.843Z,98799.55
2017-09-11T06:51:03.165Z,98801.77
2017-09-11T06:53:30.612Z,98803.81
2017-09-11T06:55:58.104Z,98800.69
2017-09-11T06:58:25.566Z,98800.84
2017-09-11T07:00:53.040Z,98796.14
2017-09-11T07:03:20.510Z,98803.03
2017-09-11T07:05:47.976Z,98797.98
2017-09-11T07:08:15.431Z,98799.72
2017-09-11T07:10:42.941Z,98803.23
2017-09-11T07:16:50.269Z,98803.41
2017-09-11T07:19:17.773Z,98812.73
2017-09-11T07:21:45.771Z,98810.96
2017-09-11T07:24:13.249Z,98808.03
2017-09-11T07:26:40.714Z,98812.03
2017-09-11T07:29:08.156Z,98816.17
2017-09-11T07:31:37.338Z,98808.81
2017-09-11T07:34:04.811Z,98811.08
2017-09-11T07:36:32.306Z,98814.22
2017-09-11T07:38:59.769Z,98818.70
2017-09-11T07:41:27.289Z,98814.13
2017-09-11T07:43:54.764Z,98818.09
2017-09-11T07:46:22.238Z,98812.76
2017-09-11T07:48:49.804Z,98809.19
2017-09-11T07:51:17.253Z,98809.01
2017-09-11T07:53:44.740Z,98813.06
2017-09-11T07:56:12.319Z,98825.69
2017-09-11T07:58:39.813Z,98827.70
2017-09-11T08:01:07.260Z,98815.26
2017-09-11T08:03:34.732Z,98819.58
2017-09-11T08:06:02.222Z,98820.75
2017-09-11T08:08:29.713Z,98821.27
2017-09-11T08:10:57.160Z,98824.37
2017-09-11T08:13:24.665Z,98825.91
2017-09-11T08:15:52.108Z,98825.74
2017-09-11T08:18:19.580Z,98832.54
2017-09-11T08:20:47.076Z,98835.23
2017-09-11T08:23:14.614Z,98853.44
2017-09-11T08:25:42.061Z,98838.38
2017-09-11T08:28:09.540Z,98840.30
2017-09-11T08:30:37.078Z,98842.52
2017-09-11T08:33:05.596Z,98845.80
2017-09-11T08:35:33.120Z,98846.48
2017-09-11T08:38:00.665Z,98851.94
2017-09-11T08:40:28.247Z,98854.97
2017-09-11T08:42:55.693Z,98847.39
2017-09-11T08:45:23.173Z,98848.02
2017-09-11T08:47:50.624Z,98847.42
2017-09-11T08:50:18.100Z,98860.22
2017-09-11T08:52:45.565Z,98858.69
2017-09-11T08:55:13.060Z,98848.13
2017-09-11T08:57:40.521Z,98855.97
2017-09-11T09:00:08.004Z,98861.95
2017-09-11T09:02:35.456Z,98867.45
2017-09-11T09:05:02.943Z,98865.41
2017-09-11T09:07:30.448Z,98863.05
2017-09-11T09:09:57.971Z,98857.72
2017-09-11T09:12:25.433Z,98857.72
2017-09-11T09:14:52.904Z,98859.07
2017-09-11T09:17:20.355Z,98853.07
2017-09-11T09:19:47.825Z,98850.97
2017-09-11T09:22:15.290Z,98848.22
2017-09-11T09:24:42.761Z,98842.84
2017-09-11T09:27:10.219Z,98834.42
2017-09-11T09:29:37.764Z,98824.83
2017-09-11T09:32:05.252Z,98846.16
2017-09-11T09:34:32.730Z,98867.67
2017-09-11T09:37:00.207Z,98875.58
2017-09-11T09:39:27.665Z,98883.16
2017-09-11T09:41:55.152Z,98879.23
2017-09-11T09:44:22.709Z,98878.58
2017-09-11T09:46:50.193Z,98870.64
2017-09-11T09:49:17.738Z,98871.02
2017-09-11T09:51:45.209Z,98866.37
2017-09-11T09:54:12.664Z,98851.48
2017-09-11T09:56:40.999Z,98851.13
2017-09-11T09:59:08.463Z,98843.33
2017-09-11T10:01:35.936Z,98843.37
2017-09-11T10:04:03.485Z,98830.45
2017-09-11T10:06:30.957Z,98839.25
2017-09-11T10:08:58.713Z,98842.22
2017-09-11T10:11:26.189Z,98842.92
2017-09-11T10:13:53.773Z,98850.11
2017-09-11T10:16:21.239Z,98841.07
2017-09-11T10:18:48.691Z,98838.99
2017-09-11T10:21:16.177Z,98838.38
2017-09-11T10:23:43.679Z,98836.97
2017-09-11T10:26:11.224Z,98837.61
2017-09-11T10:28:38.675Z,98842.75
2017-09-11T10:31:06.176Z,98839.27
2017-09-11T10:33:33.628Z,98850.69
2017-09-11T10:36:01.109Z,98854.50
2017-09-11T10:38:28.592Z,98851.77
2017-09-11T10:40:56.046Z,98850.83
2017-09-11T10:43:23.540Z,98856.13
2017-09-11T10:45:51.103Z,98850.03
2017-09-11T10:48:18.581Z,98858.25
2017-09-11T10:50:46.052Z,98854.48
2017-09-11T10:53:13.545Z,98861.91
2017-09-11T10:55:41.002Z,98864.95
2017-09-11T10:58:08.472Z,98880.41
2017-09-11T11:00:36.024Z,98878.38
2017-09-11T11:03:03.494Z,98887.38
2017-09-11T11:05:30.944Z,98877.24
2017-09-11T11:07:58.422Z,98884.50
2017-09-11T11:10:27.758Z,98879.16
2017-09-11T11:12:55.440Z,98872.44
2017-09-11T11:15:22.917Z,98880.89
2017-09-11T11:17:50.383Z,98887.42
2017-09-11T11:20:17.909Z,98891.83
2017-09-11T11:22:45.389Z,98890.66
2017-09-11T11:25:12.925Z,98887.50
2017-09-11T11:27:40.368Z,98879.32
2017-09-11T11:30:07.840Z,98892.09
2017-09-11T11:32:35.324Z,98885.14
2017-09-11T11:35:02.801Z,98884.91
2017-09-11T11:37:30.317Z,98881.93
2017-09-11T11:39:57.800Z,98885.31
2017-09-11T11:42:25.285Z,98885.70
2017-09-11T11:44:52.761Z,98894.81
2017-09-11T11:47:20.250Z,98900.40
2017-09-11T11:49:47.719Z,98907.08
2017-09-11T11:52:15.168Z,98912.38
2017-09-11T11:54:42.659Z,98902.25
2017-09-11T11:57:10.120Z,98915.08
2017-09-11T11:59:37.605Z,98918.92
2017-09-11T12:02:05.053Z,98930.05
2017-09-11T12:04:32.524Z,98936.74
2017-09-11T12:06:59.992Z,98934.05
2017-09-11T12:09:27.516Z,98927.58
2017-09-11T12:11:54.980Z,98924.32
2017-09-11T12:14:22.452Z,98930.64
2017-09-11T12:16:49.910Z,98923.30
2017-09-11T12:19:17.387Z,98930.45
2017-09-11T12:21:45.547Z,98932.14
2017-09-11T12:24:13.080Z,98925.72
2017-09-11T12:26:40.547Z,98941.16
2017-09-11T12:29:08.025Z,98964.23
2017-09-11T12:31:35.508Z,98969.30
2017-09-11T12:34:03.040Z,98990.81
2017-09-11T12:36:30.512Z,98979.27
2017-09-11T12:38:57.960Z,98969.38
2017-09-11T12:41:25.431Z,98963.75
2017-09-11T12:43:52.888Z,98952.21
2017-09-11T12:46:20.425Z,98954.66
2017-09-11T12:48:47.931Z,98948.59
2017-09-11T12:51:15.399Z,98944.94
2017-09-11T12:53:42.843Z,98940.14
2017-09-11T12:56:10.446Z,98935.27
2017-09-11T12:58:37.939Z,98935.88
2017-09-11T13:01:05.417Z,98926.06
2017-09-11T13:03:32.923Z,98926.04
2017-09-11T13:06:00.431Z,98927.09
2017-09-11T13:08:27.881Z,98922.80
2017-09-11T13:10:55.401Z,98915.29
2017-09-11T13:13:22.852Z,98916.98
2017-09-11T13:15:50.361Z,98916.25
2017-09-11T13:18:17.816Z,98919.91
2017-09-11T13:20:45.305Z,98917.08
2017-09-11T13:23:12.775Z,98920.13
2017-09-11T13:25:40.237Z,98921.48
2017-09-11T13:28:07.732Z,98915.69
2017-09-11T13:30:35.180Z,98921.38
2017-09-11T13:33:02.719Z,98918.20
2017-09-11T13:35:30.224Z,98927.95
2017-09-11T13:37:57.711Z,98922.31
2017-09-11T13:40:25.165Z,98924.72
2017-09-11T13:42:52.640Z,98933.02
2017-09-11T13:45:20.433Z,98938.70
2017-09-11T13:47:47.958Z,98935.36
2017-09-11T13:50:15.776Z,98930.27
2017-09-11T13:52:43.283Z,98930.50
2017-09-11T13:55:10.746Z,98927.23
2017-09-11T13:57:38.219Z,98933.63
2017-09-11T14:00:05.672Z,98923.47
2017-09-11T14:02:33.209Z,98920.31
2017-09-11T14:05:00.657Z,98928.69
2017-09-11T14:07:28.124Z,98933.44
2017-09-11T14:09:55.574Z,98929.92
2017-09-11T14:12:23.044Z,98924.08
2017-09-11T14:14:50.504Z,98926.92
2017-09-11T14:17:17.981Z,98926.82
2017-09-11T14:19:45.440Z,98930.39
2017-09-11T14:22:12.968Z,98933.59
2017-09-11T14:24:40.424Z,98927.73
2017-09-11T14:27:07.884Z,98935.38
2017-09-11T14:29:35.393Z,98942.40
2017-09-11T14:32:02.889Z,98955.52
2017-09-11T14:34:30.361Z,98943.95
2017-09-11T14:36:57.813Z,98948.30
2017-09-11T14:39:25.291Z,98941.94
2017-09-11T14:41:52.749Z,98953.16
2017-09-11T14:44:20.225Z,98968.20
2017-09-11T14:46:47.740Z,98968.93
2017-09-11T14:49:15.245Z,98971.42
2017-09-11T14:51:42.701Z,98970.34
2017-09-11T14:54:10.180Z,98972.70
2017-09-11T14:56:37.624Z,98973.91
2017-09-11T14:59:05.117Z,98966.03
2017-09-11T15:01:32.567Z,98967.08
2017-09-11T15:04:00.037Z,98969.88
2017-09-11T15:06:27.521Z,98967.75
2017-09-11T15:08:55.002Z,98971.08
2017-09-11T15:11:22.595Z,98969.81
2017-09-11T15:13:50.115Z,98971.77
2017-09-11T15:16:17.569Z,98981.49
2017-09-11T15:18:45.064Z,98982.13
2017-09-11T15:21:12.520Z,98998.05
2017-09-11T15:23:40.260Z,99003.75
2017-09-11T15:26:07.712Z,99007.98
2017-09-11T15:28:35.205Z,99004.29
2017-09-11T15:31:02.675Z,99010.23
2017-09-11T15:33:30.141Z,99012.73
2017-09-11T15:35:57.613Z,99011.87
2017-09-11T15:38:25.069Z,99014.86
2017-09-11T15:40:52.663Z,99020.75
2017-09-11T15:43:20.194Z,99025.16
2017-09-11T15:45:47.673Z,99023.07
2017-09-11T15:48:15.132Z,99036.95
2017-09-11T15:50:42.614Z,99049.59
2017-09-11T15:53:10.086Z,99061.30
2017-09-11T15:55:37.569Z,99067.89
2017-09-11T15:58:05.021Z,99057.17
2017-09-11T16:00:32.545Z,99059.92
2017-09-11T16:02:59.991Z,99054.90
2017-09-11T16:05:27.478Z,99054.02
2017-09-11T16:07:54.957Z,99048.64
2017-09-11T16:10:22.492Z,99056.28
2017-09-11T16:12:49.948Z,99055.97
2017-09-11T16:15:17.420Z,99055.00
2017-09-11T16:17:44.867Z,99044.99
2017-09-11T16:20:12.412Z,99049.31
2017-09-11T16:22:40.032Z,99048.57
2017-09-11T16:25:07.532Z,99047.78
2017-09-11T16:27:34.995Z,99049.40
2017-09-11T16:30:02.455Z,99057.77
2017-09-11T16:32:29.948Z,99052.19
2017-09-11T16:34:57.608Z,99050.20
2017-09-11T16:37:25.081Z,99047.73
2017-09-11T16:39:52.541Z,99055.06
2017-09-11T16:42:20.017Z,99060.06
2017-09-11T16:44:47.488Z,99054.33
2017-09-11T16:47:14.959Z,99051.52
2017-09-11T16:49:42.416Z,99050.84
2017-09-11T16:52:09.903Z,99052.92
2017-09-11T16:54:37.380Z,99056.36
2017-09-11T16:57:04.853Z,99063.77
2017-09-11T16:59:32.308Z,99069.69
2017-09-11T17:01:59.820Z,99073.37
2017-09-11T17:04:27.328Z,99068.91
2017-09-11T17:06:54.801Z,99070.49
2017-09-11T17:09:22.269Z,99075.20
2017-09-11T17:11:49.745Z,99076.95
2017-09-11T17:14:17.207Z,99081.16
2017-09-11T17:16:44.682Z,99081.42
2017-09-11T17:19:12.150Z,99082.60
2017-09-11T17:21:39.623Z,99083.66
2017-09-11T17:24:07.086Z,99078.91
2017-09-11T17:26:34.588Z,99077.93
2017-09-11T17:29:02.047Z,99073.57
2017-09-11T17:31:29.573Z,99075.97
2017-09-11T17:33:57.025Z,99080.66
2017-09-11T17:36:24.588Z,99073.97
2017-09-11T17:38:52.056Z,99074.41
2017-09-11T17:41:19.529Z,99082.89
2017-09-11T17:43:47.005Z,99077.98
2017-09-11T17:46:14.548Z,99075.03
2017-09-11T17:48:42.026Z,99082.95
2017-09-11T17:51:09.549Z,99089.86
2017-09-11T17:53:37.025Z,99093.80
2017-09-11T17:56:04.486Z,99097.39
2017-09-11T17:58:32.132Z,99099.59
2017-09-11T18:00:59.592Z,99103.77
2017-09-11T18:03:27.093Z,99101.62
2017-09-11T18:05:54.536Z,99101.55
2017-09-11T18:08:22.013Z,99108.77
2017-09-11T18:10:49.489Z,99108.91
2017-09-11T18:13:16.963Z,99117.19
2017-09-11T18:15:44.412Z,99112.06
2017-09-11T18:18:11.889Z,99111.94
2017-09-11T18:20:39.426Z,99124.95
2017-09-11T18:23:06.911Z,99135.73
2017-09-11T18:25:34.440Z,99140.36
2017-09-11T18:28:01.903Z,99147.36
2017-09-11T18:30:29.371Z,99153.48
2017-09-11T18:32:57.028Z,99158.16
2017-09-11T18:35:24.561Z,99161.09
2017-09-11T18:37:52.008Z,99160.86
2017-09-11T18:40:19.534Z,99166.03
2017-09-11T18:42:46.985Z,99165.95
2017-09-11T18:45:14.627Z,99163.16
2017-09-11T18:47:42.152Z,99169.08
2017-09-11T18:50:09.625Z,99167.53
2017-09-11T18:52:37.106Z,99166.35
2017-09-11T18:55:04.585Z,99165.59
2017-09-11T18:57:32.544Z,99168.06
2017-09-11T19:00:00.008Z,99165.16
2017-09-11T19:02:27.464Z,99167.36
2017-09-11T19:04:54.962Z,99166.67
2017-09-11T19:07:22.408Z,99174.05
2017-09-11T19:09:50.210Z,99166.14
2017-09-11T19:12:17.660Z,99178.19
2017-09-11T19:14:45.157Z,99178.52
2017-09-11T19:17:12.604Z,99179.81
2017-09-11T19:19:40.076Z,99175.61
2017-09-11T19:22:07.595Z,99180.27
2017-09-11T19:24:35.090Z,99171.58
2017-09-11T19:27:02.540Z,99175.52
2017-09-11T19:29:30.055Z,99179.36
2017-09-11T19:31:57.541Z,99180.22
2017-09-11T19:34:25.048Z,99185.83
2017-09-11T19:36:52.515Z,99188.62
2017-09-11T19:39:19.973Z,99181.88
2017-09-11T19:41:47.520Z,99182.73
2017-09-11T19:44:15.093Z,99186.84
2017-09-11T19:46:42.651Z,99188.03
2017-09-11T19:49:10.108Z,99190.28
2017-09-11T19:51:37.605Z,99188.58
2017-09-11T19:54:05.082Z,99194.95
2017-09-11T19:56:32.604Z,99192.23
2017-09-11T19:59:00.699Z,99199.76
2017-09-11T20:01:28.213Z,99198.00
2017-09-11T20:03:55.695Z,99198.19
2017-09-11T20:06:23.220Z,99201.75
2017-09-11T20:08:50.773Z,99203.78
2017-09-11T20:11:18.845Z,99202.29
2017-09-11T20:13:46.324Z,99204.74
2017-09-11T20:16:13.825Z,99210.89
2017-09-11T20:18:41.285Z,99217.05
2017-09-11T20:21:08.768Z,99212.62
2017-09-11T20:23:36.250Z,99210.69
2017-09-11T20:26:03.793Z,99215.45
2017-09-11T20:28:31.287Z,99212.03
2017-09-11T20:30:58.759Z,99209.98
2017-09-11T20:33:26.208Z,99207.36
2017-09-11T20:35:53.733Z,99209.19
2017-09-11T20:38:21.221Z,99213.95
2017-09-11T20:40:48.692Z,99218.89
2017-09-11T20:43:16.175Z,99214.72
2017-09-11T20:45:43.639Z,99223.82
2017-09-11T20:48:11.142Z,99214.17
2017-09-11T20:50:38.660Z,99212.90
2017-09-11T20:53:06.131Z,99221.66
2017-09-11T20:55:33.635Z,99211.28
2017-09-11T20:58:01.278Z,99211.33
2017-09-11T21:00:28.732Z,99208.12
2017-09-11T21:02:56.228Z,99213.31
2017-09-11T21:05:23.689Z,99211.01
2017-09-11T21:07:51.260Z,99212.67
2017-09-11T21:10:18.707Z,99220.27
2017-09-11T21:12:46.194Z,99216.98
2017-09-11T21:15:13.643Z,99226.08
2017-09-11T21:17:41.108Z,99221.91
2017-09-11T21:20:08.555Z,99230.77
2017-09-11T21:22:36.029Z,99229.83
2017-09-11T21:25:03.505Z,99232.53
2017-09-11T21:27:31.009Z,99237.68
2017-09-11T21:29:58.455Z,99240.75
2017-09-11T21:32:25.904Z,99239.70
2017-09-11T21:34:53.387Z,99237.42
2017-09-11T21:37:20.839Z,99240.69
2017-09-11T21:39:48.326Z,99242.81
2017-09-11T21:42:15.807Z,99243.02
2017-09-11T21:44:43.314Z,99241.91
2017-09-11T21:47:10.767Z,99237.60
2017-09-11T21:49:38.232Z,99228.91
2017-09-11T21:52:05.681Z,99236.23
2017-09-11T21:54:33.161Z,99233.69
2017-09-11T21:57:00.717Z,99239.23
2017-09-11T21:59:28.189Z,99240.62
2017-09-11T22:01:55.639Z,99238.08
2017-09-11T22:04:23.182Z,99236.95
2017-09-11T22:06:50.629Z,99247.02
2017-09-11T22:09:18.127Z,99241.27
2017-09-11T22:11:45.601Z,99249.37
2017-09-11T22:14:13.085Z,99251.16
2017-09-11T22:16:40.551Z,99251.37
2017-09-11T22:19:08.032Z,99249.25
2017-09-11T22:21:35.485Z,99243.64
2017-09-11T22:24:03.029Z,99245.70
2017-09-11T22:26:30.585Z,99240.41
2017-09-11T22:28:58.031Z,99248.87
2017-09-11T22:31:25.509Z,99247.75
2017-09-11T22:33:52.974Z,99245.09
2017-09-11T22:36:20.513Z,99243.48
2017-09-11T22:38:48.076Z,99240.47
2017-09-11T22:41:15.644Z,99239.84
2017-09-11T22:43:43.098Z,99242.19
2017-09-11T22:46:10.592Z,99243.59
2017-09-11T22:48:38.057Z,99251.18
2017-09-11T22:51:05.560Z,99256.55
2017-09-11T22:53:33.120Z,99254.53
2017-09-11T22:56:00.588Z,99258.88
2017-09-11T22:58:28.046Z,99256.06
2017-09-11T23:00:55.520Z,99258.50
2017-09-11T23:03:22.981Z,99256.25
2017-09-11T23:05:50.463Z,99256.56
2017-09-11T23:08:18.075Z,99249.42
2017-09-11T23:10:45.564Z,99254.69
2017-09-11T23:13:13.009Z,99253.83
2017-09-11T23:15:40.492Z,99256.35
2017-09-11T23:18:07.948Z,99254.92
2017-09-11T23:20:35.447Z,99261.51
2017-09-11T23:23:02.942Z,99252.55
2017-09-11T23:25:30.464Z,99251.63
2017-09-11T23:27:57.918Z,99245.18
2017-09-11T23:30:25.479Z,99243.98
2017-09-11T23:32:52.941Z,99245.47
2017-09-11T23:35:20.415Z,99251.34
2017-09-11T23:37:47.891Z,99250.23
2017-09-11T23:40:15.340Z,99251.58
2017-09-11T23:42:42.836Z,99247.72
2017-09-11T23:45:10.283Z,99248.47
2017-09-11T23:47:37.765Z,99248.89
2017-09-11T23:50:05.231Z,99254.67
2017-09-11T23:52:32.720Z,99255.20
2017-09-11T23:55:00.176Z,99250.34
2017-09-11T23:57:27.668Z,99247.86
2017-09-11T23:59:55.120Z,99243.85
